Time;durP1;ratioP1;P1;durP2;ratioP2;P2;SDS_P1;SDS_P2;PMS_P1;PMS_P2;Temp;Humidity;BMP_temperature;BMP_pressure;BME280_temperature;BME280_humidity;BME280_pressure;Samples;Min_cycle;Max_cycle;Signal;HPM_P1;HPM_P2
2022/10/29 00:02:22;;;;;;;16.70;6.90;;;17.20;99.90;;;;;;4948383;28;20040;-77
2022/10/29 00:04:47;;;;;;;15.00;5.55;;;17.10;99.90;;;;;;4955425;28;20046;-77
2022/10/29 00:07:13;;;;;;;19.33;5.97;;;17.00;99.90;;;;;;4947519;28;20053;-77
2022/10/29 00:09:38;;;;;;;12.00;6.00;;;17.10;99.90;;;;;;4949760;28;20137;-77
2022/10/29 00:12:04;;;;;;;15.25;6.30;;;17.20;99.90;;;;;;4964305;28;20050;-77
2022/10/29 00:14:30;;;;;;;14.95;5.68;;;17.20;99.90;;;;;;4951507;28;20035;-77
2022/10/29 00:16:55;;;;;;;21.30;6.78;;;17.10;99.90;;;;;;4952525;28;20035;-76
2022/10/29 00:19:21;;;;;;;14.93;6.30;;;17.20;99.90;;;;;;4947738;28;20019;-76
2022/10/29 00:21:49;;;;;;;16.42;6.90;;;17.10;99.90;;;;;;4953803;28;20042;-77
2022/10/29 00:24:15;;;;;;;16.08;7.43;;;17.00;99.90;;;;;;4949423;28;20042;-77
2022/10/29 00:26:40;;;;;;;25.13;7.35;;;17.00;99.90;;;;;;4968285;28;20042;-76
2022/10/29 00:29:06;;;;;;;19.65;5.43;;;16.90;99.90;;;;;;4967554;28;20042;-76
2022/10/29 00:31:31;;;;;;;24.70;7.00;;;17.00;99.90;;;;;;4947355;28;20039;-77
2022/10/29 00:33:57;;;;;;;17.52;6.55;;;17.10;99.90;;;;;;4982564;28;20034;-76
2022/10/29 00:36:25;;;;;;;17.52;6.53;;;17.00;99.90;;;;;;4964097;28;20034;-77
2022/10/29 00:38:50;;;;;;;16.65;5.78;;;17.00;99.90;;;;;;4967207;28;20054;-76
2022/10/29 00:41:18;;;;;;;14.05;6.85;;;17.00;99.90;;;;;;4968155;28;20383;-77
2022/10/29 00:44:08;;;;;;;13.02;5.63;;;17.00;99.90;;;;;;4959564;28;20038;-77
2022/10/29 00:46:33;;;;;;;12.63;5.53;;;17.00;99.90;;;;;;4954157;28;20030;-76
2022/10/29 00:48:59;;;;;;;15.20;6.40;;;17.10;99.90;;;;;;4949865;28;20446;-76
2022/10/29 00:51:24;;;;;;;19.75;6.05;;;17.00;99.90;;;;;;4946442;28;20062;-76
2022/10/29 00:53:53;;;;;;;15.48;6.20;;;17.00;99.90;;;;;;4930431;28;20443;-77
2022/10/29 00:56:18;;;;;;;9.63;4.97;;;16.90;99.90;;;;;;4948114;28;20038;-77
2022/10/29 00:58:44;;;;;;;15.68;5.07;;;16.90;99.90;;;;;;4947633;28;20034;-77
2022/10/29 01:01:09;;;;;;;23.88;7.13;;;16.90;99.90;;;;;;4952605;28;20122;-78
2022/10/29 01:03:35;;;;;;;26.45;7.60;;;16.90;99.90;;;;;;4963378;28;20105;-76
2022/10/29 01:06:00;;;;;;;18.77;6.82;;;16.80;99.90;;;;;;4973602;28;20030;-77
2022/10/29 01:08:26;;;;;;;17.10;7.85;;;16.80;99.90;;;;;;4962268;28;20212;-77
2022/10/29 01:11:09;;;;;;;11.90;5.10;;;16.70;99.90;;;;;;4965103;28;20046;-77
2022/10/29 01:13:54;;;;;;;20.80;6.63;;;16.70;99.90;;;;;;4962890;28;20030;-77
2022/10/29 01:16:44;;;;;;;14.60;6.30;;;16.70;99.90;;;;;;4947734;28;20505;-77
2022/10/29 01:19:16;;;;;;;22.17;7.63;;;16.70;99.90;;;;;;4947628;28;20700;-77
2022/10/29 01:21:47;;;;;;;12.63;6.45;;;16.60;99.90;;;;;;4936674;28;20122;-77
2022/10/29 01:24:26;;;;;;;16.15;6.85;;;16.60;99.90;;;;;;4958229;28;20130;-76
2022/10/29 01:27:15;;;;;;;23.98;8.52;;;16.50;99.90;;;;;;4947387;28;20038;-77
2022/10/29 01:30:02;;;;;;;23.70;7.82;;;16.50;99.90;;;;;;4967646;28;20038;-77
2022/10/29 01:32:36;;;;;;;26.17;8.30;;;16.60;99.90;;;;;;4981265;28;20039;-77
2022/10/29 01:35:13;;;;;;;24.50;7.47;;;16.40;99.90;;;;;;4980579;28;20395;-77
2022/10/29 01:37:38;;;;;;;22.00;7.60;;;16.40;99.90;;;;;;4952272;28;20045;-77
2022/10/29 01:40:25;;;;;;;10.60;5.30;;;16.30;99.90;;;;;;4975705;28;20505;-77
2022/10/29 01:43:16;;;;;;;15.90;6.10;;;16.30;99.90;;;;;;4952697;28;20568;-76
2022/10/29 01:46:08;;;;;;;24.10;7.03;;;16.40;99.90;;;;;;4936474;28;20442;-77
2022/10/29 01:48:36;;;;;;;8.82;5.35;;;16.30;99.90;;;;;;4976685;28;20043;-77
2022/10/29 01:51:05;;;;;;;22.73;7.32;;;16.30;99.90;;;;;;4951112;28;20034;-76
2022/10/29 01:53:30;;;;;;;16.02;6.57;;;16.20;99.90;;;;;;4963725;28;20057;-76
2022/10/29 01:55:56;;;;;;;18.77;7.18;;;16.10;99.90;;;;;;4950031;28;20064;-77
2022/10/29 01:58:22;;;;;;;20.20;6.60;;;16.10;99.90;;;;;;4966755;28;20027;-76
2022/10/29 02:00:53;;;;;;;14.90;6.70;;;16.00;99.90;;;;;;4965829;28;20101;-77
2022/10/29 02:03:29;;;;;;;17.83;7.18;;;16.00;99.90;;;;;;4982911;28;20054;-77
2022/10/29 02:06:19;;;;;;;18.85;7.57;;;15.90;99.90;;;;;;4968266;28;20034;-77
2022/10/29 02:09:06;;;;;;;29.38;8.18;;;15.80;99.90;;;;;;4967865;28;20586;-77
2022/10/29 02:11:44;;;;;;;19.58;7.80;;;15.80;99.90;;;;;;4967792;28;20027;-77
2022/10/29 02:14:34;;;;;;;23.65;8.30;;;15.80;99.90;;;;;;4979420;28;20057;-77
2022/10/29 02:17:00;;;;;;;11.43;5.60;;;15.80;99.90;;;;;;4944694;28;20034;-77
2022/10/29 02:19:29;;;;;;;18.98;7.70;;;15.70;99.90;;;;;;4946980;28;20050;-77
2022/10/29 02:21:55;;;;;;;24.42;8.57;;;15.70;99.90;;;;;;4959684;28;20548;-76
2022/10/29 02:24:20;;;;;;;19.35;7.88;;;15.70;99.90;;;;;;4960708;28;20113;-77
2022/10/29 02:26:46;;;;;;;19.33;6.95;;;15.60;99.90;;;;;;4974920;28;20038;-78
2022/10/29 02:29:11;;;;;;;18.65;7.38;;;15.60;99.90;;;;;;4981174;28;20137;-77
2022/10/29 02:31:37;;;;;;;20.10;8.32;;;15.50;99.90;;;;;;4945348;28;20118;-77
2022/10/29 02:34:02;;;;;;;22.75;8.43;;;15.50;99.90;;;;;;4941944;28;20449;-77
2022/10/29 02:36:28;;;;;;;16.73;7.68;;;15.50;99.90;;;;;;4961589;28;20470;-77
2022/10/29 02:38:53;;;;;;;21.88;8.02;;;15.50;99.90;;;;;;4948468;28;20065;-76
2022/10/29 02:41:19;;;;;;;25.15;8.23;;;15.40;99.90;;;;;;4963697;28;20035;-76
2022/10/29 02:43:44;;;;;;;22.50;8.90;;;15.40;99.90;;;;;;4964150;28;20031;-77
2022/10/29 02:46:12;;;;;;;15.55;9.00;;;15.30;99.90;;;;;;4959693;28;20029;-76
2022/10/29 02:48:37;;;;;;;19.92;8.82;;;15.30;99.90;;;;;;4946839;28;20478;-77
2022/10/29 02:51:03;;;;;;;25.85;7.72;;;15.20;99.90;;;;;;4980803;28;20109;-77
2022/10/29 02:53:28;;;;;;;19.63;8.70;;;15.20;99.90;;;;;;4948398;28;20101;-76
2022/10/29 02:55:54;;;;;;;17.85;7.70;;;15.20;99.90;;;;;;4943762;28;20023;-78
2022/10/29 02:58:19;;;;;;;18.85;8.65;;;15.10;99.90;;;;;;4965149;28;20023;-77
2022/10/29 03:00:48;;;;;;;21.75;8.35;;;15.10;99.90;;;;;;4958374;28;20033;-78
2022/10/29 03:03:14;;;;;;;18.80;8.30;;;15.00;99.90;;;;;;4964783;28;20088;-78
2022/10/29 03:05:39;;;;;;;28.80;10.55;;;15.00;99.90;;;;;;4975732;28;20054;-78
2022/10/29 03:08:05;;;;;;;20.88;8.27;;;14.80;99.90;;;;;;4945843;28;20042;-78
2022/10/29 03:10:30;;;;;;;20.88;9.43;;;14.90;99.90;;;;;;4964767;28;20038;-78
2022/10/29 03:12:59;;;;;;;27.67;9.80;;;14.90;99.90;;;;;;4962225;28;20043;-78
2022/10/29 03:15:25;;;;;;;25.08;9.23;;;14.80;99.90;;;;;;4960554;28;20061;-78
2022/10/29 03:17:50;;;;;;;21.83;7.75;;;14.80;99.90;;;;;;4962529;28;20062;-78
2022/10/29 03:20:16;;;;;;;11.60;6.22;;;14.80;99.90;;;;;;4948883;28;20042;-78
2022/10/29 03:22:41;;;;;;;11.93;6.95;;;14.80;99.90;;;;;;4961647;28;20045;-79
2022/10/29 03:25:07;;;;;;;12.02;5.88;;;14.80;99.90;;;;;;4959288;28;20045;-78
2022/10/29 03:27:40;;;;;;;9.98;5.50;;;14.80;99.90;;;;;;4963561;28;20045;-79
2022/10/29 03:30:07;;;;;;;10.95;5.50;;;14.80;99.90;;;;;;4979597;28;20088;-78
2022/10/29 03:32:33;;;;;;;12.45;5.30;;;14.90;99.90;;;;;;4966498;28;20038;-78
2022/10/29 03:34:58;;;;;;;17.70;7.78;;;14.80;99.90;;;;;;4947469;28;20035;-78
2022/10/29 03:37:24;;;;;;;18.25;7.18;;;14.70;99.90;;;;;;4939402;28;20031;-78
2022/10/29 03:39:49;;;;;;;15.60;6.20;;;14.70;99.90;;;;;;4950448;28;20023;-78
2022/10/29 03:42:15;;;;;;;15.70;5.85;;;14.70;99.90;;;;;;4957174;28;20613;-78
2022/10/29 03:44:40;;;;;;;22.73;7.55;;;14.70;99.90;;;;;;4948737;28;20042;-78
2022/10/29 03:47:07;;;;;;;24.08;8.18;;;14.70;99.90;;;;;;4963507;28;20035;-78
2022/10/29 03:49:32;;;;;;;15.23;7.45;;;14.60;99.90;;;;;;4947480;28;20497;-78
2022/10/29 03:51:58;;;;;;;22.65;8.23;;;14.60;99.90;;;;;;4980960;28;20113;-78
2022/10/29 03:54:24;;;;;;;26.77;8.30;;;14.60;99.90;;;;;;4961474;28;20058;-78
2022/10/29 03:56:49;;;;;;;23.08;7.93;;;14.60;99.90;;;;;;4966928;28;20126;-78
2022/10/29 03:59:15;;;;;;;21.48;9.80;;;14.50;99.90;;;;;;4962008;28;20062;-78
2022/10/29 04:01:40;;;;;;;17.38;7.35;;;14.50;99.90;;;;;;4949371;28;20131;-78
2022/10/29 04:04:06;;;;;;;18.60;8.30;;;14.50;99.90;;;;;;4964821;28;20042;-78
2022/10/29 04:06:31;;;;;;;21.13;9.23;;;14.50;99.90;;;;;;4946361;28;20037;-78
2022/10/29 04:08:57;;;;;;;18.58;7.97;;;14.40;99.90;;;;;;4962397;28;20118;-78
2022/10/29 04:11:22;;;;;;;23.63;8.35;;;14.50;99.90;;;;;;4949395;28;20479;-78
2022/10/29 04:13:51;;;;;;;23.08;8.80;;;14.50;99.90;;;;;;4979157;28;20034;-79
2022/10/29 04:16:17;;;;;;;17.48;8.20;;;14.50;99.90;;;;;;4951931;28;20487;-78
2022/10/29 04:18:42;;;;;;;25.48;9.48;;;14.40;99.90;;;;;;4955897;28;20065;-78
2022/10/29 04:21:08;;;;;;;18.05;8.02;;;14.30;99.90;;;;;;4982603;28;20077;-78
2022/10/29 04:23:34;;;;;;;24.85;9.57;;;14.30;99.90;;;;;;4950948;28;20069;-78
2022/10/29 04:25:59;;;;;;;24.15;8.07;;;14.30;99.90;;;;;;4955193;28;20030;-78
2022/10/29 04:28:25;;;;;;;19.65;10.00;;;14.30;99.90;;;;;;4965970;28;20102;-77
2022/10/29 04:30:51;;;;;;;15.95;8.23;;;14.20;99.90;;;;;;4965265;28;20038;-77
2022/10/29 04:33:16;;;;;;;23.08;9.05;;;14.20;99.90;;;;;;4949284;28;20972;-77
2022/10/29 04:35:42;;;;;;;25.00;8.48;;;14.20;99.90;;;;;;4963539;28;20038;-76
2022/10/29 04:38:08;;;;;;;19.58;7.35;;;14.20;99.90;;;;;;4949072;28;20023;-77
2022/10/29 04:40:34;;;;;;;15.90;6.63;;;14.20;99.90;;;;;;4952287;28;20027;-77
2022/10/29 04:42:59;;;;;;;13.45;5.47;;;14.30;99.90;;;;;;4953428;28;20041;-77
2022/10/29 04:45:25;;;;;;;12.18;5.82;;;14.40;99.90;;;;;;4946789;28;20057;-77
2022/10/29 04:48:00;;;;;;;13.48;7.07;;;14.40;99.90;;;;;;4951540;28;20062;-77
2022/10/29 04:50:26;;;;;;;15.05;7.00;;;14.40;99.90;;;;;;4962935;28;20058;-77
2022/10/29 04:52:52;;;;;;;19.13;8.45;;;14.30;99.90;;;;;;4964445;28;20035;-77
2022/10/29 04:55:17;;;;;;;19.15;8.77;;;14.20;99.90;;;;;;4970716;28;20783;-77
2022/10/29 04:57:48;;;;;;;22.83;8.73;;;14.10;99.90;;;;;;4953716;28;20470;-77
2022/10/29 05:00:14;;;;;;;18.13;9.05;;;14.10;99.90;;;;;;4948248;28;20034;-76
2022/10/29 05:02:40;;;;;;;23.60;9.05;;;14.10;99.90;;;;;;4963166;28;20041;-76
2022/10/29 05:05:05;;;;;;;23.15;9.25;;;14.10;99.90;;;;;;4948462;28;20026;-77
2022/10/29 05:07:31;;;;;;;22.58;8.98;;;14.10;99.90;;;;;;4980481;28;20058;-77
2022/10/29 05:09:56;;;;;;;20.83;10.27;;;14.10;99.90;;;;;;4980785;28;20050;-77
2022/10/29 05:12:23;;;;;;;26.73;8.70;;;14.10;99.90;;;;;;4980627;28;20062;-77
2022/10/29 05:14:48;;;;;;;22.48;9.40;;;14.00;99.90;;;;;;4952157;28;20478;-77
2022/10/29 05:17:14;;;;;;;23.27;9.07;;;14.00;99.90;;;;;;4952323;28;20086;-76
2022/10/29 05:19:39;;;;;;;19.30;9.63;;;14.00;99.90;;;;;;4965198;28;20034;-78
2022/10/29 05:22:05;;;;;;;22.25;9.23;;;14.00;99.90;;;;;;4981284;28;20035;-76
2022/10/29 05:24:31;;;;;;;18.33;9.48;;;14.10;99.90;;;;;;4961847;28;20499;-76
2022/10/29 05:26:56;;;;;;;29.40;10.40;;;14.10;99.90;;;;;;4952548;28;20038;-77
2022/10/29 05:29:22;;;;;;;27.00;10.32;;;14.20;99.90;;;;;;4944913;28;20057;-77
2022/10/29 05:31:47;;;;;;;27.20;10.25;;;14.20;99.90;;;;;;4962765;28;20445;-76
2022/10/29 05:34:13;;;;;;;29.48;9.65;;;14.20;99.90;;;;;;4981507;28;20035;-77
2022/10/29 05:36:39;;;;;;;20.08;8.65;;;14.20;99.90;;;;;;4963428;28;20034;-77
2022/10/29 05:39:04;;;;;;;18.15;8.40;;;14.20;99.90;;;;;;4964268;28;20034;-77
2022/10/29 05:41:29;;;;;;;17.65;8.48;;;14.10;99.90;;;;;;4963796;28;20042;-77
2022/10/29 05:43:55;;;;;;;22.00;9.48;;;14.10;99.90;;;;;;4953958;28;20041;-77
2022/10/29 05:46:21;;;;;;;15.43;7.40;;;14.20;99.90;;;;;;4947914;28;20027;-77
2022/10/29 05:48:46;;;;;;;12.88;6.68;;;14.10;99.90;;;;;;4960438;28;20090;-76
2022/10/29 05:51:12;;;;;;;11.77;5.43;;;14.30;99.90;;;;;;4975896;28;20403;-77
2022/10/29 05:53:37;;;;;;;11.35;5.63;;;14.40;99.90;;;;;;4960971;28;20450;-77
2022/10/29 05:56:03;;;;;;;18.95;8.73;;;14.50;99.90;;;;;;4980480;28;20026;-77
2022/10/29 05:58:29;;;;;;;17.95;8.15;;;14.40;99.90;;;;;;4952674;28;20046;-77
2022/10/29 06:00:54;;;;;;;21.42;7.93;;;14.40;99.90;;;;;;4947297;28;20057;-78
2022/10/29 06:03:21;;;;;;;21.35;8.57;;;14.30;99.90;;;;;;4977388;28;20070;-77
2022/10/29 06:05:46;;;;;;;13.43;7.90;;;14.40;99.90;;;;;;4949776;28;20061;-77
2022/10/29 06:08:12;;;;;;;23.67;9.82;;;14.30;99.90;;;;;;4945004;28;20824;-77
2022/10/29 06:10:38;;;;;;;24.55;9.55;;;14.30;99.90;;;;;;4946500;28;20441;-77
2022/10/29 06:13:16;;;;;;;24.77;9.90;;;14.30;99.90;;;;;;4934165;28;20030;-77
2022/10/29 06:15:42;;;;;;;19.63;9.40;;;14.30;99.90;;;;;;4950647;28;20089;-77
2022/10/29 06:18:08;;;;;;;29.23;10.55;;;14.20;99.90;;;;;;4946851;28;20034;-77
2022/10/29 06:20:35;;;;;;;26.27;10.13;;;14.20;99.90;;;;;;4948089;28;20045;-77
2022/10/29 06:23:01;;;;;;;15.73;8.00;;;14.20;99.90;;;;;;4965494;28;20141;-76
2022/10/29 06:25:26;;;;;;;26.35;9.82;;;14.30;99.90;;;;;;4975836;28;20126;-77
2022/10/29 06:28:02;;;;;;;26.23;10.35;;;14.30;99.90;;;;;;4948749;28;20113;-77
2022/10/29 06:30:29;;;;;;;26.13;10.60;;;14.30;99.90;;;;;;4976156;28;20427;-77
2022/10/29 06:32:54;;;;;;;19.20;8.95;;;14.20;99.90;;;;;;4968309;28;20773;-77
2022/10/29 06:35:20;;;;;;;19.58;9.10;;;14.20;99.90;;;;;;4946414;28;20026;-77
2022/10/29 06:37:45;;;;;;;20.63;10.07;;;14.20;99.90;;;;;;4962819;28;20042;-77
2022/10/29 06:40:11;;;;;;;22.27;8.82;;;14.30;99.90;;;;;;4960104;28;20031;-77
2022/10/29 06:42:37;;;;;;;22.75;9.73;;;14.30;99.90;;;;;;4944783;28;20744;-77
2022/10/29 06:45:02;;;;;;;19.98;9.82;;;14.30;99.90;;;;;;4980774;28;20041;-77
2022/10/29 06:47:28;;;;;;;21.13;9.35;;;14.30;99.90;;;;;;4961175;28;20417;-77
2022/10/29 06:49:53;;;;;;;23.52;9.07;;;14.30;99.90;;;;;;4979588;28;20034;-77
2022/10/29 06:52:19;;;;;;;20.75;9.25;;;14.30;99.90;;;;;;4959538;28;20034;-77
2022/10/29 06:54:45;;;;;;;19.77;9.23;;;14.40;99.90;;;;;;4949386;28;20031;-77
2022/10/29 06:57:10;;;;;;;17.10;9.35;;;14.40;99.90;;;;;;4951577;28;20457;-78
2022/10/29 06:59:36;;;;;;;20.75;9.57;;;14.40;99.90;;;;;;4982676;28;20037;-77
2022/10/29 07:02:01;;;;;;;21.20;9.82;;;14.40;99.90;;;;;;4951005;28;20053;-77
2022/10/29 07:04:27;;;;;;;19.60;10.23;;;14.50;99.90;;;;;;4942969;28;20121;-77
2022/10/29 07:06:52;;;;;;;20.65;9.30;;;14.50;99.90;;;;;;4963844;28;20027;-77
2022/10/29 07:09:18;;;;;;;15.57;8.80;;;14.50;99.90;;;;;;4949305;28;20117;-77
2022/10/29 07:11:48;;;;;;;11.60;7.00;;;14.50;99.90;;;;;;4962169;28;20390;-77
2022/10/29 07:14:16;;;;;;;17.85;6.57;;;14.60;99.90;;;;;;4957781;28;20054;-77
2022/10/29 07:16:46;;;;;;;14.75;6.60;;;14.60;99.90;;;;;;4958402;28;20057;-77
2022/10/29 07:19:12;;;;;;;21.15;7.82;;;14.70;99.90;;;;;;4941231;28;20513;-78
2022/10/29 07:21:37;;;;;;;20.48;7.80;;;14.70;99.90;;;;;;4965960;28;20046;-76
2022/10/29 07:24:03;;;;;;;14.88;6.85;;;14.70;99.90;;;;;;4963821;28;20034;-76
2022/10/29 07:26:28;;;;;;;21.08;8.07;;;14.80;99.90;;;;;;4978128;28;20049;-76
2022/10/29 07:28:56;;;;;;;17.50;7.70;;;14.80;99.90;;;;;;4965881;28;20033;-76
2022/10/29 07:31:22;;;;;;;22.60;8.05;;;14.90;99.90;;;;;;4955270;28;20030;-78
2022/10/29 07:33:47;;;;;;;24.17;8.45;;;14.90;99.90;;;;;;4981210;28;20450;-77
2022/10/29 07:36:13;;;;;;;24.25;8.10;;;14.90;99.90;;;;;;4962320;28;20035;-76
2022/10/29 07:38:39;;;;;;;19.80;8.13;;;15.00;99.90;;;;;;4936816;28;20109;-78
2022/10/29 07:41:04;;;;;;;21.92;7.65;;;15.00;99.90;;;;;;4965148;28;20554;-77
2022/10/29 07:43:30;;;;;;;20.67;7.80;;;15.10;99.90;;;;;;4951655;28;20863;-77
2022/10/29 07:45:55;;;;;;;14.18;6.68;;;15.20;99.90;;;;;;4951168;28;20039;-76
2022/10/29 07:48:21;;;;;;;19.52;7.32;;;15.30;99.90;;;;;;4939453;28;20035;-78
2022/10/29 07:50:47;;;;;;;22.30;7.03;;;15.30;99.90;;;;;;4961558;28;20061;-77
2022/10/29 07:53:12;;;;;;;15.32;6.95;;;15.40;99.90;;;;;;4963484;28;20035;-77
2022/10/29 07:55:38;;;;;;;17.13;6.18;;;15.60;99.90;;;;;;4951937;28;20023;-77
2022/10/29 07:58:05;;;;;;;16.23;6.57;;;15.70;99.90;;;;;;4951368;28;20054;-76
2022/10/29 08:00:33;;;;;;;18.67;7.30;;;15.80;99.90;;;;;;4968645;28;20033;-77
2022/10/29 08:02:58;;;;;;;15.60;6.85;;;15.90;99.90;;;;;;4967927;28;20070;-77
2022/10/29 08:05:24;;;;;;;21.38;7.28;;;16.00;99.90;;;;;;4984708;28;20057;-77
2022/10/29 08:07:52;;;;;;;18.83;6.32;;;16.10;99.90;;;;;;4954890;28;20054;-77
2022/10/29 08:10:17;;;;;;;19.67;6.85;;;16.20;99.90;;;;;;4980169;28;20053;-77
2022/10/29 08:12:53;;;;;;;16.65;5.80;;;16.20;99.90;;;;;;4960619;28;20557;-77
2022/10/29 08:15:18;;;;;;;19.98;5.65;;;16.30;99.90;;;;;;4969455;28;20455;-77
2022/10/29 08:17:44;;;;;;;19.75;6.20;;;16.30;99.90;;;;;;4955090;28;20050;-77
2022/10/29 08:20:10;;;;;;;11.85;5.88;;;16.30;99.90;;;;;;4966193;28;20157;-77
2022/10/29 08:22:36;;;;;;;15.43;5.00;;;16.40;99.90;;;;;;4978154;28;20045;-76
2022/10/29 08:25:01;;;;;;;15.32;5.47;;;16.50;99.90;;;;;;4969109;28;20313;-77
2022/10/29 08:27:27;;;;;;;20.05;5.47;;;16.60;99.90;;;;;;4950048;28;20042;-77
2022/10/29 08:29:52;;;;;;;12.82;4.72;;;16.70;99.90;;;;;;4967132;28;20034;-77
2022/10/29 08:32:18;;;;;;;14.13;5.97;;;16.70;99.90;;;;;;4964251;28;20088;-77
2022/10/29 08:34:43;;;;;;;12.52;4.47;;;16.90;99.90;;;;;;4981740;28;20070;-77
2022/10/29 08:37:09;;;;;;;14.73;5.35;;;17.00;99.90;;;;;;4966089;28;20034;-77
2022/10/29 08:39:35;;;;;;;10.48;4.65;;;17.20;99.90;;;;;;4942627;28;20034;-77
2022/10/29 08:42:09;;;;;;;13.30;4.82;;;17.20;99.90;;;;;;4954502;28;20039;-77
2022/10/29 08:44:56;;;;;;;10.48;4.53;;;17.30;99.90;;;;;;4962899;28;20176;-77
2022/10/29 08:47:22;;;;;;;13.02;4.95;;;17.40;99.90;;;;;;4974204;28;20027;-77
2022/10/29 08:50:08;;;;;;;13.05;4.78;;;17.40;99.90;;;;;;4966693;28;20402;-77
2022/10/29 08:52:34;;;;;;;;;;;17.50;99.90;;;;;;4954069;28;20026;-78
2022/10/29 08:55:26;;;;;;;14.10;4.20;;;17.60;99.90;;;;;;4963965;28;20420;-76
2022/10/29 08:57:55;;;;;;;13.43;4.30;;;17.70;99.90;;;;;;4984523;28;20064;-76
2022/10/29 09:00:31;;;;;;;12.90;5.13;;;18.00;99.90;;;;;;4961047;28;20117;-77
2022/10/29 09:02:57;;;;;;;6.90;3.45;;;18.10;99.90;;;;;;4980787;28;20042;-76
2022/10/29 09:05:48;;;;;;;14.23;4.55;;;18.30;99.90;;;;;;4950384;28;20091;-76
2022/10/29 09:08:25;;;;;;;15.90;4.47;;;18.50;99.90;;;;;;4979885;28;20082;-77
2022/10/29 09:10:55;;;;;;;9.25;3.47;;;18.80;99.90;;;;;;4977746;28;20121;-77
2022/10/29 09:13:31;;;;;;;17.00;4.18;;;18.90;99.90;;;;;;4961011;28;20414;-77
2022/10/29 09:16:12;;;;;;;11.80;3.57;;;19.10;99.90;;;;;;4966162;28;20033;-76
2022/10/29 09:18:57;;;;;;;9.93;4.20;;;19.20;99.90;;;;;;4980811;28;20066;-76
2022/10/29 09:21:38;;;;;;;15.05;3.65;;;19.30;99.90;;;;;;4963720;28;20031;-76
2022/10/29 09:24:08;;;;;;;15.40;4.30;;;19.40;99.90;;;;;;4961543;28;20362;-76
2022/10/29 09:26:53;;;;;;;8.68;3.90;;;19.60;99.90;;;;;;4963135;28;20026;-77
2022/10/29 09:29:36;;;;;;;10.32;4.15;;;19.60;99.90;;;;;;4936721;28;20073;-76
2022/10/29 09:32:10;;;;;;;10.40;3.08;;;20.00;99.90;;;;;;4982665;28;20031;-77
2022/10/29 09:34:42;;;;;;;9.30;3.38;;;20.10;99.90;;;;;;4955196;28;20039;-76
2022/10/29 09:37:13;;;;;;;9.18;3.60;;;20.10;99.90;;;;;;4963718;28;20032;-77
2022/10/29 09:39:39;;;;;;;13.45;3.33;;;20.20;99.90;;;;;;4952768;28;20057;-77
2022/10/29 09:42:09;;;;;;;13.55;3.58;;;20.40;99.90;;;;;;4952982;28;20070;-76
2022/10/29 09:44:53;;;;;;;10.38;3.67;;;20.40;99.90;;;;;;4948344;28;20088;-76
2022/10/29 09:47:55;;;;;;;12.13;4.38;;;20.50;99.90;;;;;;4948789;28;20483;-76
2022/10/29 09:50:49;;;;;;;18.50;3.65;;;20.60;99.90;;;;;;4978452;28;20023;-77
2022/10/29 09:53:14;;;;;;;13.55;3.95;;;20.70;99.90;;;;;;4979564;28;20038;-77
2022/10/29 09:55:42;;;;;;;14.40;3.90;;;20.60;99.90;;;;;;4953778;28;20329;-76
2022/10/29 09:58:20;;;;;;;7.93;3.50;;;20.80;99.90;;;;;;4949750;28;20085;-76
2022/10/29 10:00:45;;;;;;;12.48;4.68;;;20.80;99.90;;;;;;4951433;28;20101;-76
2022/10/29 10:03:36;;;;;;;18.17;4.05;;;20.80;99.90;;;;;;4963063;28;20049;-77
2022/10/29 10:06:03;;;;;;;14.00;3.92;;;20.80;99.90;;;;;;4963991;28;20049;-76
2022/10/29 10:08:29;;;;;;;15.60;4.05;;;20.90;99.90;;;;;;4961734;28;20049;-77
2022/10/29 10:11:03;;;;;;;11.82;4.95;;;20.90;99.90;;;;;;4961586;28;20030;-76
2022/10/29 10:13:31;;;;;;;13.10;4.13;;;20.90;99.90;;;;;;4958799;28;20093;-76
2022/10/29 10:16:00;;;;;;;10.88;5.10;;;21.10;99.90;;;;;;4960097;28;20680;-76
2022/10/29 10:18:37;;;;;;;12.43;3.85;;;21.10;99.90;;;;;;4962441;28;20438;-76
2022/10/29 10:21:06;;;;;;;17.40;5.45;;;21.30;99.90;;;;;;4950265;28;20398;-77
2022/10/29 10:23:40;;;;;;;11.02;3.50;;;21.30;99.90;;;;;;4964878;28;20133;-76
2022/10/29 10:26:25;;;;;;;16.33;4.03;;;21.30;99.90;;;;;;4964322;28;20042;-76
2022/10/29 10:29:16;;;;;;;9.48;3.17;;;21.40;99.90;;;;;;4966982;28;20386;-77
2022/10/29 10:31:46;;;;;;;15.18;4.05;;;21.60;99.90;;;;;;4959706;28;20034;-76
2022/10/29 10:34:24;;;;;;;11.45;3.55;;;21.70;99.90;;;;;;4962429;28;20054;-77
2022/10/29 10:36:54;;;;;;;10.02;3.05;;;21.80;99.90;;;;;;4977450;28;20027;-76
2022/10/29 10:39:26;;;;;;;17.08;4.10;;;21.90;99.90;;;;;;4977691;28;20034;-77
2022/10/29 10:41:52;;;;;;;10.40;3.17;;;22.00;99.90;;;;;;4964780;28;20379;-77
2022/10/29 10:44:18;;;;;;;10.55;4.00;;;22.00;99.90;;;;;;4946260;28;20042;-76
2022/10/29 10:46:44;;;;;;;12.45;4.40;;;22.20;99.90;;;;;;4946665;28;20038;-76
2022/10/29 10:49:13;;;;;;;11.57;4.07;;;22.60;99.90;;;;;;4950299;28;20035;-76
2022/10/29 10:51:41;;;;;;;10.55;3.70;;;22.70;99.90;;;;;;4964093;28;20023;-77
2022/10/29 10:54:31;;;;;;;12.75;3.22;;;22.60;99.90;;;;;;4977007;28;20429;-77
2022/10/29 10:57:01;;;;;;;12.77;3.78;;;22.60;99.90;;;;;;4962230;28;20030;-76
2022/10/29 10:59:44;;;;;;;10.20;3.20;;;22.60;99.90;;;;;;4963024;28;20372;-76
2022/10/29 11:02:42;;;;;;;11.43;3.92;;;22.60;99.90;;;;;;4946094;28;21316;-76
2022/10/29 11:05:38;;;;;;;17.73;4.30;;;22.80;99.90;;;;;;4959472;28;20038;-76
2022/10/29 11:08:06;;;;;;;;;;;22.90;99.90;;;;;;4933826;28;20561;-77
2022/10/29 11:10:38;;;;;;;11.00;3.50;;;23.00;99.90;;;;;;4957857;28;19921;-79
2022/10/29 11:13:05;;;;;;;11.93;3.88;;;23.20;99.90;;;;;;4627787;28;10000073;-76
2022/10/29 11:15:39;;;;;;;12.93;3.75;;;23.20;99.90;;;;;;4960123;28;20035;-76
2022/10/29 11:18:29;;;;;;;15.98;3.90;;;23.30;99.90;;;;;;4959765;28;20046;-76
2022/10/29 11:21:03;;;;;;;9.18;4.35;;;23.30;99.90;;;;;;4937550;28;20030;-78
2022/10/29 11:23:34;;;;;;;15.27;3.35;;;23.60;99.90;;;;;;4959866;28;20047;-78
2022/10/29 11:26:08;;;;;;;16.77;4.40;;;23.70;99.90;;;;;;4965212;28;20031;-78
2022/10/29 11:28:46;;;;;;;10.85;3.13;;;24.00;99.90;;;;;;4944600;28;20101;-78
2022/10/29 11:31:27;;;;;;;9.70;3.50;;;24.30;99.90;;;;;;4957199;28;20038;-77
2022/10/29 11:34:05;;;;;;;17.35;3.95;;;24.00;99.90;;;;;;4965433;28;20035;-78
2022/10/29 11:36:33;;;;;;;11.10;3.70;;;24.20;99.90;;;;;;4954049;28;20712;-79
2022/10/29 11:39:03;;;;;;;10.63;3.65;;;24.40;99.90;;;;;;4946712;28;20023;-78
2022/10/29 11:41:36;;;;;;;12.13;3.45;;;24.60;99.90;;;;;;4950114;28;20034;-78
2022/10/29 11:44:02;;;;;;;16.58;4.20;;;24.50;99.90;;;;;;4963233;28;20613;-79
2022/10/29 11:46:38;;;;;;;12.25;3.22;;;24.80;99.90;;;;;;4950770;28;20117;-78
2022/10/29 11:49:07;;;;;;;13.82;3.58;;;24.60;99.90;;;;;;4968348;28;20034;-78
2022/10/29 11:52:01;;;;;;;10.68;3.50;;;24.70;99.90;;;;;;4949604;28;20382;-76
2022/10/29 11:54:49;;;;;;;10.07;3.63;;;24.60;99.90;;;;;;4963806;28;20487;-78
2022/10/29 11:57:28;;;;;;;12.60;3.35;;;24.70;99.90;;;;;;4966304;28;20034;-78
2022/10/29 11:59:53;;;;;;;11.85;3.53;;;24.70;99.90;;;;;;4952541;28;20042;-78
2022/10/29 12:02:32;;;;;;;9.25;3.42;;;25.00;99.90;;;;;;4963647;28;20042;-78
2022/10/29 12:05:05;;;;;;;7.53;3.28;;;25.20;99.90;;;;;;4968849;28;20018;-78
2022/10/29 12:07:49;;;;;;;9.63;3.28;;;25.40;99.90;;;;;;4966302;28;20495;-78
2022/10/29 12:10:27;;;;;;;9.10;3.13;;;25.50;99.90;;;;;;4979966;28;20117;-78
2022/10/29 12:13:08;;;;;;;12.90;3.10;;;25.70;99.90;;;;;;4963926;28;20046;-78
2022/10/29 12:15:41;;;;;;;11.27;3.30;;;25.50;99.90;;;;;;4951685;28;20031;-79
2022/10/29 12:18:22;;;;;;;11.70;3.63;;;25.50;99.90;;;;;;4960580;28;20081;-78
2022/10/29 12:21:07;;;;;;;10.23;3.58;;;25.50;99.90;;;;;;4980885;28;20034;-79
2022/10/29 12:23:47;;;;;;;15.50;4.00;;;25.40;99.90;;;;;;4983332;28;20056;-78
2022/10/29 12:26:17;;;;;;;8.85;3.38;;;25.40;99.90;;;;;;4981791;28;20182;-79
2022/10/29 12:28:48;;;;;;;12.00;3.28;;;25.10;99.90;;;;;;4953352;28;20045;-78
2022/10/29 12:31:20;;;;;;;11.40;3.40;;;25.40;99.90;;;;;;4977464;28;20043;-78
2022/10/29 12:34:07;;;;;;;8.27;2.90;;;25.50;99.90;;;;;;4963402;28;20038;-78
2022/10/29 12:36:51;;;;;;;12.70;3.90;;;25.70;99.50;;;;;;4936632;28;20038;-78
2022/10/29 12:39:26;;;;;;;12.65;3.97;;;25.50;99.90;;;;;;4982501;28;20089;-78
2022/10/29 12:41:51;;;;;;;7.70;3.00;;;25.70;99.90;;;;;;4966744;28;20096;-78
2022/10/29 12:44:26;;;;;;;11.88;3.25;;;25.90;99.20;;;;;;4962319;28;20035;-77
2022/10/29 12:47:10;;;;;;;19.02;4.35;;;25.80;99.90;;;;;;4958798;28;20546;-78
2022/10/29 12:49:45;;;;;;;6.95;3.10;;;25.70;99.90;;;;;;4969317;28;20046;-77
2022/10/29 12:52:18;;;;;;;12.00;3.90;;;25.50;99.90;;;;;;4965767;28;20437;-77
2022/10/29 12:54:46;;;;;;;16.30;3.75;;;25.90;98.70;;;;;;4963925;28;20145;-77